Time;durP1;ratioP1;P1;durP2;ratioP2;P2;SDS_P1;SDS_P2;PMS_P1;PMS_P2;Temp;Humidity;BMP_temperature;BMP_pressure;BME280_temperature;BME280_humidity;BME280_pressure;Samples;Min_cycle;Max_cycle;Signal;HPM_P1;HPM_P2
2022/04/23 00:01:28;;;;;;;8.63;6.90;;;;;9.40;95144.00;;;;8369378;28;20238;-72
2022/04/23 00:05:32;;;;;;;10.13;7.73;;;;;9.30;95154.00;;;;8373494;28;20231;-71
2022/04/23 00:09:36;;;;;;;9.43;7.70;;;;;9.20;95155.00;;;;8377762;28;20266;-72
2022/04/23 00:13:39;;;;;;;11.00;8.20;;;;;9.10;95159.00;;;;8378521;28;20656;-72
2022/04/23 00:17:43;;;;;;;10.37;7.43;;;;;9.10;95157.00;;;;8364235;28;20225;-73
2022/04/23 00:21:49;;;;;;;13.30;7.87;;;;;9.20;95160.00;;;;8378272;28;20752;-70
2022/04/23 00:25:54;;;;;;;9.93;7.33;;;;;9.20;95158.00;;;;8370004;28;20239;-72
2022/04/23 00:29:57;;;;;;;9.97;8.00;;;;;9.30;95164.00;;;;8380904;28;20321;-72
2022/04/23 00:34:00;;;;;;;9.97;6.93;;;;;9.40;95160.00;;;;8371093;28;20247;-72
2022/04/23 00:38:06;;;;;;;9.80;7.00;;;;;9.50;95163.00;;;;8365508;28;20240;-72
2022/04/23 00:42:11;;;;;;;9.30;7.03;;;;;9.50;95160.00;;;;8361954;28;20317;-72
2022/04/23 00:46:14;;;;;;;9.83;6.90;;;;;9.50;95162.00;;;;8370715;28;20220;-71
2022/04/23 00:50:21;;;;;;;11.60;7.80;;;;;9.40;95158.00;;;;8375412;28;20235;-73
2022/04/23 00:54:25;;;;;;;8.70;7.03;;;;;9.30;95154.00;;;;8369089;28;20236;-73
2022/04/23 00:58:29;;;;;;;9.33;7.10;;;;;9.30;95162.00;;;;8374156;28;20306;-74
2022/04/23 01:02:32;;;;;;;11.40;7.60;;;;;9.30;95153.00;;;;8362809;28;20319;-73
2022/04/23 01:06:36;;;;;;;11.13;7.10;;;;;9.20;95150.00;;;;8375896;28;20224;-72
2022/04/23 01:10:42;;;;;;;10.40;7.00;;;;;9.10;95154.00;;;;8379655;28;20692;-71
2022/04/23 01:14:58;;;;;;;9.57;6.97;;;;;9.10;95149.00;;;;8372245;28;20232;-73
2022/04/23 01:19:01;;;;;;;9.90;6.87;;;;;9.10;95146.00;;;;8365628;28;20243;-73
2022/04/23 01:23:06;;;;;;;9.17;6.83;;;;;9.10;95142.00;;;;8367121;28;20230;-73
2022/04/23 01:27:10;;;;;;;9.23;6.87;;;;;9.20;95145.00;;;;8375718;28;20281;-70
2022/04/23 01:31:13;;;;;;;7.67;6.10;;;;;9.20;95145.00;;;;8370633;28;20673;-72
2022/04/23 01:35:16;;;;;;;9.53;6.53;;;;;9.20;95152.00;;;;8373048;28;20224;-72
2022/04/23 01:39:21;;;;;;;9.00;6.57;;;;;9.20;95157.00;;;;8373141;28;20693;-73
2022/04/23 01:43:24;;;;;;;9.03;6.90;;;;;9.30;95152.00;;;;8374844;28;20314;-72
2022/04/23 01:47:27;;;;;;;8.47;7.00;;;;;9.30;95153.00;;;;8371684;28;20232;-74
2022/04/23 01:51:31;;;;;;;10.90;6.97;;;;;9.30;95153.00;;;;8371875;28;20224;-72
2022/04/23 01:55:35;;;;;;;9.20;7.13;;;;;9.30;95151.00;;;;8360167;28;20263;-72
2022/04/23 01:59:38;;;;;;;10.40;7.53;;;;;9.30;95163.00;;;;8365904;28;20227;-73
2022/04/23 02:03:41;;;;;;;10.30;7.57;;;;;9.30;95159.00;;;;8368379;28;20255;-74
2022/04/23 02:07:45;;;;;;;10.57;7.77;;;;;9.30;95160.00;;;;8372730;28;20221;-72
2022/04/23 02:11:50;;;;;;;12.30;8.30;;;;;9.40;95155.00;;;;8371480;28;20232;-73
2022/04/23 02:15:53;;;;;;;11.13;8.40;;;;;9.40;95154.00;;;;8367917;28;20223;-74
2022/04/23 02:20:02;;;;;;;12.27;8.93;;;;;9.50;95162.00;;;;8382316;28;20234;-72
2022/04/23 02:24:08;;;;;;;13.50;9.53;;;;;9.60;95161.00;;;;8361488;28;20323;-72
2022/04/23 02:28:12;;;;;;;13.43;8.70;;;;;9.60;95163.00;;;;8365744;28;20246;-72
2022/04/23 02:32:16;;;;;;;11.53;8.37;;;;;9.70;95157.00;;;;8383253;28;20226;-74
2022/04/23 02:36:20;;;;;;;13.03;9.00;;;;;9.70;95151.00;;;;8371255;28;20234;-73
2022/04/23 02:40:24;;;;;;;13.40;9.73;;;;;9.70;95156.00;;;;8360244;28;20234;-72
2022/04/23 02:44:29;;;;;;;12.80;8.53;;;;;9.70;95145.00;;;;8369027;28;20235;-73
2022/04/23 02:48:32;;;;;;;12.00;8.83;;;;;9.70;95152.00;;;;8379766;28;20772;-71
2022/04/23 02:52:35;;;;;;;15.30;9.93;;;;;9.70;95154.00;;;;8375586;28;20229;-72
2022/04/23 02:56:38;;;;;;;15.17;9.10;;;;;9.70;95150.00;;;;8371272;28;20876;-74
2022/04/23 03:00:44;;;;;;;16.93;10.70;;;;;9.70;95146.00;;;;8386599;22;20724;-72
2022/04/23 03:04:47;;;;;;;14.83;10.17;;;;;9.70;95151.00;;;;8357769;22;20240;-73
2022/04/23 03:08:51;;;;;;;17.47;11.33;;;;;9.70;95154.00;;;;8339199;28;20224;-72
2022/04/23 03:12:55;;;;;;;16.33;11.30;;;;;9.70;95154.00;;;;8337744;28;20234;-73
2022/04/23 03:16:59;;;;;;;17.33;10.97;;;;;9.70;95157.00;;;;8343589;28;20316;-74
2022/04/23 03:21:02;;;;;;;17.17;11.50;;;;;9.70;95162.00;;;;8342686;28;20823;-71
2022/04/23 03:25:07;;;;;;;18.30;12.23;;;;;9.70;95158.00;;;;8347013;28;20220;-72
2022/04/23 03:29:10;;;;;;;18.10;11.47;;;;;9.70;95159.00;;;;8351986;28;20221;-74
2022/04/23 03:33:15;;;;;;;18.83;11.83;;;;;9.70;95152.00;;;;8351299;28;20228;-72
2022/04/23 03:37:18;;;;;;;20.27;12.87;;;;;9.70;95167.00;;;;8351325;28;20763;-73
2022/04/23 03:41:21;;;;;;;21.37;13.30;;;;;9.70;95153.00;;;;8347736;28;20780;-72
2022/04/23 03:45:24;;;;;;;18.90;12.33;;;;;9.70;95151.00;;;;8349968;28;20242;-73
2022/04/23 03:49:29;;;;;;;21.70;13.67;;;;;9.60;95159.00;;;;8346809;28;20236;-73
2022/04/23 03:53:34;;;;;;;22.77;14.63;;;;;9.70;95154.00;;;;8350240;28;20566;-73
2022/04/23 03:57:44;;;;;;;25.03;14.17;;;;;9.70;95153.00;;;;8347586;28;20254;-72
2022/04/23 04:01:47;;;;;;;21.47;14.03;;;;;9.70;95158.00;;;;8343167;28;20239;-72
2022/04/23 04:05:52;;;;;;;22.77;14.60;;;;;9.70;95158.00;;;;8314879;28;20239;-71
2022/04/23 04:09:55;;;;;;;21.53;13.87;;;;;9.70;95160.00;;;;8317578;28;20234;-72
2022/04/23 04:13:58;;;;;;;23.27;14.70;;;;;9.80;95168.00;;;;8314864;28;20228;-71
2022/04/23 04:18:02;;;;;;;24.10;14.03;;;;;9.90;95168.00;;;;8316975;28;20236;-76
2022/04/23 04:22:08;;;;;;;27.23;14.53;;;;;9.90;95168.00;;;;8318320;28;20692;-71
2022/04/23 04:26:12;;;;;;;23.07;13.10;;;;;10.00;95167.00;;;;8313705;28;20232;-71
2022/04/23 04:30:15;;;;;;;24.03;14.77;;;;;10.00;95159.00;;;;8314762;28;20231;-72
2022/04/23 04:34:28;;;;;;;23.23;14.67;;;;;10.00;95155.00;;;;8311082;28;20225;-73
2022/04/23 04:38:33;;;;;;;23.93;15.00;;;;;10.00;95152.00;;;;8317057;28;20248;-73
2022/04/23 04:42:36;;;;;;;23.80;14.70;;;;;10.00;95148.00;;;;8315743;28;20232;-73
2022/04/23 04:46:39;;;;;;;25.63;14.50;;;;;10.10;95149.00;;;;8315269;28;20312;-72
2022/04/23 04:50:43;;;;;;;22.20;13.93;;;;;10.10;95158.00;;;;8313828;28;20233;-72
2022/04/23 04:54:47;;;;;;;22.27;14.07;;;;;10.20;95154.00;;;;8316135;28;20228;-73
2022/04/23 04:58:50;;;;;;;24.53;14.47;;;;;10.20;95155.00;;;;8314302;28;20315;-75
2022/04/23 05:02:54;;;;;;;22.97;14.10;;;;;10.30;95160.00;;;;8311200;28;20221;-75
2022/04/23 05:06:57;;;;;;;24.70;15.20;;;;;10.30;95159.00;;;;8308134;28;20304;-72
2022/04/23 05:11:02;;;;;;;21.97;14.07;;;;;10.40;95162.00;;;;8305304;28;20236;-75
2022/04/23 05:15:06;;;;;;;23.13;14.53;;;;;10.50;95164.00;;;;8309934;28;20275;-74
2022/04/23 05:19:10;;;;;;;26.57;14.63;;;;;10.60;95160.00;;;;8312055;28;20328;-75
2022/04/23 05:23:14;;;;;;;22.67;14.83;;;;;10.70;95159.00;;;;8313797;28;20229;-73
2022/04/23 05:27:19;;;;;;;23.57;14.60;;;;;10.80;95169.00;;;;8310817;28;20637;-74
2022/04/23 05:31:23;;;;;;;21.27;14.37;;;;;10.80;95168.00;;;;8307788;28;20231;-71
2022/04/23 05:35:26;;;;;;;21.57;14.10;;;;;10.90;95166.00;;;;8312120;28;20221;-76
2022/04/23 05:39:29;;;;;;;23.60;14.33;;;;;11.10;95162.00;;;;8309939;28;20229;-74
2022/04/23 05:43:34;;;;;;;24.00;14.43;;;;;11.20;95161.00;;;;8310884;28;20256;-74
2022/04/23 05:47:40;;;;;;;28.63;14.70;;;;;11.30;95167.00;;;;8310241;28;20695;-75
2022/04/23 05:51:44;;;;;;;25.13;15.00;;;;;11.50;95170.00;;;;8311562;28;20217;-75
2022/04/23 05:55:47;;;;;;;24.77;15.43;;;;;11.50;95160.00;;;;8312293;28;20315;-76
2022/04/23 05:59:52;;;;;;;26.70;15.93;;;;;11.50;95161.00;;;;8310720;28;21894;-74
2022/04/23 06:03:55;;;;;;;30.65;16.45;;;;;11.60;95177.00;;;;8306154;28;20253;-76
2022/04/23 06:07:58;;;;;;;28.03;16.17;;;;;11.70;95177.00;;;;8313443;28;20241;-76
2022/04/23 06:12:02;;;;;;;28.63;16.77;;;;;11.80;95181.00;;;;8313085;28;20292;-78
2022/04/23 06:16:06;;;;;;;29.60;16.60;;;;;11.80;95170.00;;;;8308428;28;20221;-73
2022/04/23 06:20:10;;;;;;;24.93;16.20;;;;;11.90;95168.00;;;;8312762;28;20279;-74
2022/04/23 06:24:14;;;;;;;27.50;15.77;;;;;12.10;95171.00;;;;8313534;28;20251;-74
2022/04/23 06:28:17;;;;;;;26.83;15.43;;;;;12.10;95169.00;;;;8310073;28;20257;-75
2022/04/23 06:32:22;;;;;;;24.40;14.60;;;;;12.30;95190.00;;;;8314744;28;20351;-75
2022/04/23 06:36:25;;;;;;;36.80;18.65;;;;;12.40;95182.00;;;;8305307;28;20240;-75
2022/04/23 06:40:29;;;;;;;25.40;15.10;;;;;12.30;95180.00;;;;8307436;28;20337;-75
2022/04/23 06:44:32;;;;;;;23.23;14.47;;;;;12.40;95180.00;;;;8309569;28;20323;-76
2022/04/23 06:48:38;;;;;;;21.65;13.85;;;;;12.40;95183.00;;;;8307417;28;20233;-76
2022/04/23 06:52:41;;;;;;;27.33;15.13;;;;;12.50;95186.00;;;;8297232;28;20221;-76
2022/04/23 06:56:45;;;;;;;23.52;14.25;;;;;12.60;95179.00;;;;8305620;28;20233;-73
2022/04/23 07:00:48;;;;;;;23.05;13.60;;;;;12.80;95178.00;;;;8304293;28;20320;-76
2022/04/23 07:04:53;;;;;;;21.75;13.43;;;;;12.90;95182.00;;;;8300884;28;20230;-74
2022/04/23 07:08:56;;;;;;;22.23;13.38;;;;;13.10;95192.00;;;;8303669;28;20227;-75
2022/04/23 07:13:00;;;;;;;20.52;12.30;;;;;13.20;95191.00;;;;8305241;28;20235;-75
2022/04/23 07:17:03;;;;;;;20.40;12.48;;;;;13.40;95196.00;;;;8306147;28;20386;-79
2022/04/23 07:21:08;;;;;;;19.83;12.35;;;;;13.50;95205.00;;;;8301328;28;20318;-77
2022/04/23 07:25:11;;;;;;;20.58;12.73;;;;;13.50;95207.00;;;;8304659;28;20231;-75
2022/04/23 07:29:14;;;;;;;20.05;11.50;;;;;13.70;95202.00;;;;8311190;28;20232;-75
2022/04/23 07:37:36;;;;;;;17.42;10.45;;;;;13.70;95206.00;;;;8305460;28;20313;-75
2022/04/23 07:41:46;;;;;;;15.73;9.55;;;;;13.90;95194.00;;;;8306507;28;20281;-75
2022/04/23 07:45:49;;;;;;;17.90;10.63;;;;;14.00;95188.00;;;;8308571;28;20319;-77
2022/04/23 07:49:52;;;;;;;19.83;11.98;;;;;14.00;95192.00;;;;8306994;28;20330;-75
2022/04/23 07:53:57;;;;;;;24.40;12.93;;;;;13.90;95180.00;;;;8307073;28;20316;-76
2022/04/23 07:58:00;;;;;;;20.38;12.07;;;;;13.90;95177.00;;;;8309405;28;20274;-73
2022/04/23 08:02:04;;;;;;;19.73;12.00;;;;;14.10;95177.00;;;;8295977;28;20247;-73
2022/04/23 08:06:10;;;;;;;23.73;12.98;;;;;14.20;95169.00;;;;8305075;28;20231;-79
2022/04/23 08:10:16;;;;;;;21.48;12.90;;;;;14.30;95171.00;;;;8310886;28;20231;-72
2022/04/23 08:14:19;;;;;;;23.15;13.73;;;;;14.40;95165.00;;;;8310355;28;20639;-74
2022/04/23 08:18:23;;;;;;;25.92;14.93;;;;;14.30;95171.00;;;;8312688;28;20233;-74
2022/04/23 08:22:26;;;;;;;26.45;16.15;;;;;14.30;95176.00;;;;8313007;28;20236;-76
2022/04/23 08:26:31;;;;;;;24.65;15.98;;;;;14.40;95166.00;;;;8310124;28;20853;-74
2022/04/23 08:30:37;;;;;;;27.15;15.52;;;;;14.60;95163.00;;;;8315142;28;20250;-75
2022/04/23 08:34:40;;;;;;;29.85;17.35;;;;;14.80;95166.00;;;;8311984;28;20230;-75
2022/04/23 08:38:43;;;;;;;33.45;19.92;;;;;15.00;95155.00;;;;8307391;28;20304;-73
2022/04/23 08:42:48;;;;;;;33.00;19.50;;;;;15.10;95148.00;;;;8312019;28;20816;-73
2022/04/23 08:46:54;;;;;;;36.63;18.88;;;;;14.80;95159.00;;;;8313375;28;20223;-73
2022/04/23 08:51:00;;;;;;;33.13;19.40;;;;;14.50;95153.00;;;;8311659;28;20648;-74
2022/04/23 08:55:06;;;;;;;32.88;20.25;;;;;14.30;95149.00;;;;8311393;28;20320;-72
2022/04/23 08:59:13;;;;;;;33.53;20.17;;;;;14.20;95152.00;;;;8308622;28;20225;-74
2022/04/23 09:03:22;;;;;;;36.97;20.40;;;;;14.10;95154.00;;;;8315024;28;20293;-74
2022/04/23 09:07:27;;;;;;;36.70;20.90;;;;;14.00;95157.00;;;;8313853;28;20242;-73
2022/04/23 09:11:35;;;;;;;36.38;20.42;;;;;13.90;95164.00;;;;8313321;28;20236;-73
2022/04/23 09:24:43;;;;;;;37.17;20.02;;;;;13.80;95163.00;;;;8251560;28;20239;-74
2022/04/23 09:28:48;;;;;;;35.03;20.00;;;;;13.70;95166.00;;;;8310999;28;20230;-76
2022/04/23 09:33:00;;;;;;;30.95;17.95;;;;;13.70;95159.00;;;;8310534;28;21195;-75
2022/04/23 09:37:03;;;;;;;36.22;20.63;;;;;13.70;95162.00;;;;8311878;28;20232;-74
2022/04/23 09:41:17;;;;;;;34.35;19.52;;;;;13.80;95168.00;;;;8312890;28;20263;-73
2022/04/23 09:45:24;;;;;;;33.92;19.90;;;;;13.90;95173.00;;;;8303529;28;20609;-74
2022/04/23 09:49:28;;;;;;;34.90;19.45;;;;;13.90;95164.00;;;;8306788;28;20267;-75
2022/04/23 09:53:32;;;;;;;33.90;20.25;;;;;14.00;95170.00;;;;8309528;28;20237;-76
2022/04/23 09:57:37;;;;;;;37.80;19.60;;;;;14.10;95170.00;;;;8309667;28;20892;-74
2022/04/23 10:01:40;;;;;;;36.30;19.42;;;;;14.20;95163.00;;;;8307824;28;20722;-75
2022/04/23 10:05:47;;;;;;;34.17;19.70;;;;;14.40;95165.00;;;;8308726;28;20665;-75
2022/04/23 10:09:51;;;;;;;33.65;20.42;;;;;14.60;95165.00;;;;8308456;28;20234;-78
2022/04/23 10:13:59;;;;;;;32.35;19.00;;;;;15.20;95163.00;;;;8309306;28;20919;-77
2022/04/23 10:18:03;;;;;;;32.40;19.02;;;;;15.50;95164.00;;;;8306792;28;20622;-76
2022/04/23 10:22:19;;;;;;;33.13;19.95;;;;;15.80;95157.00;;;;8303449;28;20234;-82
2022/04/23 10:26:46;;;;;;;32.03;19.30;;;;;16.20;95152.00;;;;8308608;28;20243;-80
2022/04/23 10:31:12;;;;;;;33.85;19.10;;;;;16.90;95150.00;;;;8302288;28;20240;-78
2022/04/23 10:35:35;;;;;;;33.22;19.30;;;;;17.30;95150.00;;;;8297888;28;20775;-80
2022/04/23 10:39:40;;;;;;;30.75;19.60;;;;;17.80;95144.00;;;;8310152;28;26128;-80
2022/04/23 10:43:49;;;;;;;32.28;20.48;;;;;18.30;95138.00;;;;8307972;28;20255;-79
2022/04/23 10:47:52;;;;;;;31.20;18.60;;;;;18.20;95148.00;;;;8306626;28;20317;-79
2022/04/23 10:51:57;;;;;;;31.77;19.85;;;;;18.00;95151.00;;;;8282769;28;20226;-73
2022/04/23 10:56:08;;;;;;;38.17;20.17;;;;;17.60;95145.00;;;;8293671;28;20233;-80
2022/04/23 11:00:16;;;;;;;29.60;18.83;;;;;17.50;95145.00;;;;8289009;28;20233;-80
2022/04/23 11:04:22;;;;;;;35.33;20.13;;;;;17.60;95147.00;;;;8290668;28;20256;-78
2022/04/23 11:12:55;;;;;;;29.48;17.95;;;;;17.20;95147.00;;;;8284192;28;20658;-79
2022/04/23 11:17:00;;;;;;;28.73;17.95;;;;;17.10;95148.00;;;;8282452;28;20244;-75
2022/04/23 11:21:10;;;;;;;31.45;17.52;;;;;17.30;95137.00;;;;8286211;28;20240;-78
2022/04/23 11:25:16;;;;;;;28.63;17.15;;;;;17.40;95136.00;;;;8303586;28;20316;-78
2022/04/23 11:29:21;;;;;;;31.95;19.17;;;;;17.40;95141.00;;;;8300709;28;20227;-77
2022/04/23 11:33:24;;;;;;;30.17;18.02;;;;;17.50;95138.00;;;;8295217;28;20229;-78
2022/04/23 11:37:31;;;;;;;25.05;15.23;;;;;17.30;95150.00;;;;8289831;28;20316;-78
2022/04/23 11:41:36;;;;;;;26.58;16.52;;;;;17.40;95134.00;;;;8284971;28;20236;-77
2022/04/23 11:45:47;;;;;;;28.15;17.60;;;;;17.80;95131.00;;;;8293871;28;20312;-77
2022/04/23 11:49:50;;;;;;;26.42;16.17;;;;;18.00;95135.00;;;;8287351;28;20233;-74
2022/04/23 11:53:58;;;;;;;28.00;17.35;;;;;17.90;95129.00;;;;8297243;28;20218;-75
2022/04/23 11:58:04;;;;;;;28.17;16.83;;;;;18.00;95121.00;;;;8296908;28;20221;-73
2022/04/23 12:02:16;;;;;;;25.83;15.95;;;;;18.30;95129.00;;;;8294681;28;20302;-76
2022/04/23 12:06:20;;;;;;;25.88;16.95;;;;;18.60;95126.00;;;;8292345;28;20233;-78
2022/04/23 12:10:25;;;;;;;26.50;17.23;;;;;18.90;95117.00;;;;8295252;28;20231;-74
2022/04/23 12:14:28;;;;;;;27.95;17.63;;;;;19.00;95115.00;;;;8295186;28;20563;-76
2022/04/23 12:18:33;;;;;;;29.13;18.58;;;;;19.00;95105.00;;;;8299294;28;20257;-75
2022/04/23 12:22:36;;;;;;;30.23;18.80;;;;;18.70;95102.00;;;;8307226;28;20783;-74
2022/04/23 12:26:39;;;;;;;30.63;18.10;;;;;18.40;95086.00;;;;8307411;28;20213;-75
2022/04/23 12:44:20;;;;;;;26.23;15.70;;;;;19.00;95076.00;;;;8310934;28;20686;-74
2022/04/23 12:48:23;;;;;;;24.38;15.10;;;;;19.00;95075.00;;;;8304596;28;20225;-73
2022/04/23 12:52:31;;;;;;;25.52;14.95;;;;;18.90;95067.00;;;;8291013;28;20221;-76
2022/04/23 12:56:36;;;;;;;22.27;15.00;;;;;18.70;95074.00;;;;8283580;28;20686;-74
2022/04/23 13:00:41;;;;;;;22.73;14.57;;;;;18.30;95059.00;;;;8288474;28;20229;-82
2022/04/23 13:04:44;;;;;;;25.77;15.38;;;;;18.50;95065.00;;;;8286003;28;20625;-77
2022/04/23 13:08:58;;;;;;;28.15;14.75;;;;;18.60;95067.00;;;;8294430;28;20225;-75
2022/04/23 13:13:01;;;;;;;20.88;14.10;;;;;18.50;95055.00;;;;8289301;28;20312;-76
2022/04/23 13:17:05;;;;;;;19.75;13.50;;;;;18.70;95050.00;;;;8293595;28;20225;-76
2022/04/23 13:21:08;;;;;;;20.77;12.93;;;;;18.80;95057.00;;;;8287282;28;20229;-76
2022/04/23 13:25:15;;;;;;;16.33;11.95;;;;;19.00;95042.00;;;;8299420;28;20221;-74
2022/04/23 13:29:20;;;;;;;19.58;13.45;;;;;19.20;95048.00;;;;8294669;28;20232;-79
2022/04/23 13:33:23;;;;;;;17.33;12.98;;;;;19.20;95047.00;;;;8307379;28;20236;-80
2022/04/23 13:37:26;;;;;;;20.75;12.05;;;;;18.90;95053.00;;;;8302521;28;20233;-76
2022/04/23 13:41:31;;;;;;;16.13;11.57;;;;;18.90;95030.00;;;;8304821;28;20229;-76
2022/04/23 13:45:35;;;;;;;18.35;13.05;;;;;18.90;95030.00;;;;8305335;28;20239;-77
2022/04/23 13:49:38;;;;;;;17.25;11.50;;;;;19.10;95027.00;;;;8294047;28;20237;-82
2022/04/23 13:53:42;;;;;;;17.13;11.40;;;;;19.10;95024.00;;;;8307434;28;20364;-80
2022/04/23 13:57:47;;;;;;;20.05;12.05;;;;;19.00;95017.00;;;;8314033;28;20336;-76
2022/04/23 14:10:28;;;;;;;17.27;11.00;;;;;18.80;95019.00;;;;8301621;28;20884;-76
2022/04/23 14:14:35;;;;;;;17.75;11.60;;;;;18.90;95022.00;;;;8305023;28;20243;-77
2022/04/23 14:18:41;;;;;;;17.42;11.60;;;;;18.90;95016.00;;;;8307631;28;20315;-77
2022/04/23 14:22:45;;;;;;;14.73;10.45;;;;;18.90;95007.00;;;;8308010;28;20919;-78
2022/04/23 14:26:49;;;;;;;15.40;10.50;;;;;19.10;95007.00;;;;8307875;28;20240;-77
2022/04/23 14:30:54;;;;;;;13.57;9.88;;;;;19.00;94997.00;;;;8302987;28;20317;-79
2022/04/23 14:34:57;;;;;;;15.45;11.77;;;;;18.80;95003.00;;;;8306057;28;20229;-76
2022/04/23 14:39:07;;;;;;;15.23;10.55;;;;;18.50;94994.00;;;;8309993;28;20571;-78
2022/04/23 14:43:11;;;;;;;14.98;11.00;;;;;18.30;94992.00;;;;8307055;28;20255;-77
2022/04/23 14:47:15;;;;;;;12.68;9.40;;;;;18.10;94982.00;;;;8295350;28;20296;-77
2022/04/23 14:55:39;;;;;;;17.85;10.63;;;;;17.60;94980.00;;;;8310006;28;20632;-76
2022/04/23 14:59:42;;;;;;;14.98;9.98;;;;;17.60;94990.00;;;;8296121;28;20680;-77
2022/04/23 15:03:47;;;;;;;13.93;9.90;;;;;17.80;94979.00;;;;8298491;28;20225;-76
2022/04/23 15:07:50;;;;;;;13.68;10.20;;;;;17.90;94985.00;;;;8309247;28;20225;-75
2022/04/23 15:11:53;;;;;;;11.63;8.95;;;;;17.90;94982.00;;;;8296938;28;20251;-76
2022/04/23 15:15:57;;;;;;;11.27;8.80;;;;;17.90;94983.00;;;;8301395;28;20225;-80
2022/04/23 15:20:02;;;;;;;11.43;8.65;;;;;17.90;94981.00;;;;8313494;28;20239;-76
2022/04/23 15:24:06;;;;;;;13.35;9.30;;;;;18.00;94971.00;;;;8309824;28;20831;-75
2022/04/23 15:28:09;;;;;;;14.50;8.85;;;;;17.80;94965.00;;;;8315585;28;20296;-77
2022/04/23 15:32:13;;;;;;;10.38;7.78;;;;;17.70;94956.00;;;;8317098;28;20304;-78
2022/04/23 15:36:19;;;;;;;16.73;9.40;;;;;17.80;94954.00;;;;8312330;28;20224;-76
2022/04/23 15:40:24;;;;;;;11.93;8.32;;;;;17.80;94941.00;;;;8313109;28;20679;-77
2022/04/23 15:44:27;;;;;;;13.13;9.52;;;;;17.60;94955.00;;;;8315581;28;20236;-79
2022/04/23 15:48:30;;;;;;;12.32;8.60;;;;;17.60;94945.00;;;;8311124;28;20228;-74
2022/04/23 15:52:35;;;;;;;11.55;8.10;;;;;17.60;94949.00;;;;8311642;28;20308;-78
2022/04/23 15:56:40;;;;;;;15.23;9.70;;;;;17.50;94950.00;;;;8314131;28;20228;-77
2022/04/23 16:00:43;;;;;;;14.43;8.88;;;;;17.50;94942.00;;;;8310685;28;20257;-77
2022/04/23 16:04:47;;;;;;;11.63;7.68;;;;;17.70;94953.00;;;;8305858;28;20241;-77
2022/04/23 16:08:51;;;;;;;11.02;7.82;;;;;17.80;94942.00;;;;8313494;28;20326;-74
2022/04/23 16:12:54;;;;;;;10.30;7.90;;;;;17.60;94946.00;;;;8314259;28;20324;-77
2022/04/23 16:17:18;;;;;;;8.30;7.22;;;;;17.50;94938.00;;;;8306042;28;20780;-75
2022/04/23 16:21:21;;;;;;;10.02;7.80;;;;;17.40;94936.00;;;;8308243;28;20704;-78
2022/04/23 16:25:27;;;;;;;9.60;7.97;;;;;17.30;94927.00;;;;8301695;28;20229;-76
2022/04/23 16:29:30;;;;;;;10.77;8.10;;;;;17.10;94915.00;;;;8309041;28;20725;-76
2022/04/23 16:33:33;;;;;;;9.10;6.97;;;;;17.00;94902.00;;;;8301776;28;20710;-78
2022/04/23 16:50:41;;;;;;;10.18;7.18;;;;;16.80;94899.00;;;;8300078;28;20324;-75
2022/04/23 16:54:44;;;;;;;15.05;7.20;;;;;16.70;94903.00;;;;8307129;28;20229;-75
2022/04/23 16:58:49;;;;;;;8.10;6.82;;;;;16.60;94891.00;;;;8308959;28;20253;-75
2022/04/23 17:02:52;;;;;;;8.63;6.90;;;;;16.60;94896.00;;;;8305275;28;20237;-74
2022/04/23 17:06:57;;;;;;;9.45;6.60;;;;;16.50;94888.00;;;;8312724;28;20239;-74
2022/04/23 17:11:04;;;;;;;12.80;7.15;;;;;16.40;94901.00;;;;8308398;28;20247;-73
2022/04/23 17:15:10;;;;;;;10.75;7.18;;;;;16.40;94900.00;;;;8312093;28;20221;-73
2022/04/23 17:19:16;;;;;;;8.43;6.75;;;;;16.50;94900.00;;;;8311514;28;20236;-73
2022/04/23 17:23:20;;;;;;;7.82;6.75;;;;;16.50;94903.00;;;;8312786;28;20232;-71
2022/04/23 17:27:24;;;;;;;7.55;6.75;;;;;16.40;94900.00;;;;8305038;28;20620;-71
2022/04/23 17:31:28;;;;;;;9.95;6.18;;;;;16.20;94896.00;;;;8306206;28;20313;-72
2022/04/23 17:35:32;;;;;;;10.02;7.63;;;;;16.00;94891.00;;;;8304388;28;20323;-73
2022/04/23 17:39:35;;;;;;;10.18;7.38;;;;;15.80;94890.00;;;;8310844;28;20228;-72
2022/04/23 17:43:38;;;;;;;8.55;6.78;;;;;15.70;94896.00;;;;8307914;28;20226;-72
2022/04/23 17:47:43;;;;;;;9.45;7.35;;;;;15.60;94904.00;;;;8291682;28;20826;-72
2022/04/23 17:51:47;;;;;;;8.70;7.57;;;;;15.50;94903.00;;;;8303450;28;20245;-73
2022/04/23 17:55:50;;;;;;;11.95;7.90;;;;;15.30;94908.00;;;;8305168;28;20747;-74
2022/04/23 18:08:36;;;;;;;10.38;7.68;;;;;14.90;94916.00;;;;8312505;28;20322;-73
2022/04/23 18:12:39;;;;;;;9.55;7.38;;;;;14.80;94912.00;;;;8294062;28;20242;-73
2022/04/23 18:16:42;;;;;;;8.63;6.75;;;;;14.70;94913.00;;;;8307719;28;20268;-73
2022/04/23 18:20:47;;;;;;;10.90;7.95;;;;;14.60;94902.00;;;;8312561;28;20242;-73
2022/04/23 18:24:51;;;;;;;9.40;7.38;;;;;14.50;94910.00;;;;8308773;28;20236;-72
2022/04/23 18:28:54;;;;;;;11.02;7.35;;;;;14.40;94920.00;;;;8307186;28;20237;-72
2022/04/23 18:32:58;;;;;;;10.00;7.65;;;;;14.30;94914.00;;;;8302409;28;20231;-72
2022/04/23 18:37:03;;;;;;;11.02;7.32;;;;;14.10;94921.00;;;;8306942;28;20296;-72
2022/04/23 18:41:06;;;;;;;11.27;7.30;;;;;14.00;94922.00;;;;8299021;28;20705;-73
2022/04/23 18:45:11;;;;;;;9.52;6.97;;;;;13.90;94927.00;;;;8294108;28;20243;-73
2022/04/23 18:49:15;;;;;;;9.77;7.70;;;;;13.80;94925.00;;;;8307745;28;20224;-72
2022/04/23 18:53:20;;;;;;;8.70;7.13;;;;;13.70;94937.00;;;;8299121;28;20649;-72
2022/04/23 18:57:23;;;;;;;11.25;7.25;;;;;13.60;94932.00;;;;8310572;28;20227;-72
2022/04/23 19:01:30;;;;;;;8.20;6.85;;;;;13.50;94938.00;;;;8310127;28;20233;-72
2022/04/23 19:05:33;;;;;;;9.90;7.22;;;;;13.40;94939.00;;;;8308998;28;20253;-70
2022/04/23 19:09:38;;;;;;;10.43;7.07;;;;;13.30;94929.00;;;;8310499;28;20243;-72
2022/04/23 19:13:41;;;;;;;9.05;6.97;;;;;13.20;94923.00;;;;8307735;28;20228;-72
2022/04/23 19:17:45;;;;;;;9.13;7.22;;;;;13.00;94924.00;;;;8311183;28;20242;-72
2022/04/23 19:30:46;;;;;;;9.75;6.88;;;;;12.70;94922.00;;;;8286874;28;20638;-73
2022/04/23 19:34:50;;;;;;;11.30;7.88;;;;;12.60;94918.00;;;;8311841;28;20304;-71
2022/04/23 19:38:54;;;;;;;9.07;6.55;;;;;12.40;94918.00;;;;8312732;28;20313;-71
2022/04/23 19:42:58;;;;;;;8.73;6.82;;;;;12.40;94902.00;;;;8310584;28;20228;-71
2022/04/23 19:47:02;;;;;;;10.52;7.10;;;;;12.30;94890.00;;;;8311887;28;20306;-73
2022/04/23 19:51:05;;;;;;;11.65;7.43;;;;;12.20;94893.00;;;;8312980;28;20226;-72
2022/04/23 19:55:13;;;;;;;10.68;7.55;;;;;12.10;94893.00;;;;8306851;28;20968;-71
2022/04/23 19:59:18;;;;;;;11.70;7.93;;;;;12.00;94890.00;;;;8312671;28;20226;-69
2022/04/23 20:03:21;;;;;;;9.52;7.57;;;;;11.90;94903.00;;;;8311006;28;20309;-73
2022/04/23 20:07:24;;;;;;;10.18;7.25;;;;;11.90;94899.00;;;;8313967;28;20230;-72
2022/04/23 20:11:28;;;;;;;10.43;7.60;;;;;11.80;94888.00;;;;8317250;28;20642;-72
2022/04/23 20:15:33;;;;;;;10.55;7.47;;;;;11.70;94883.00;;;;8316862;28;20597;-73
2022/04/23 20:19:36;;;;;;;9.77;7.20;;;;;11.60;94873.00;;;;8313004;28;20229;-71
2022/04/23 20:23:39;;;;;;;13.32;7.88;;;;;11.40;94869.00;;;;8297542;28;20227;-73
2022/04/23 20:27:42;;;;;;;10.40;7.20;;;;;11.40;94861.00;;;;8296460;28;20321;-70
2022/04/23 20:31:47;;;;;;;10.67;7.50;;;;;11.40;94860.00;;;;8298965;28;20914;-70
2022/04/23 20:40:16;;;;;;;13.77;8.20;;;;;11.10;94853.00;;;;8316185;28;20229;-72
2022/04/23 20:44:21;;;;;;;9.90;7.40;;;;;11.10;94849.00;;;;8312888;28;20308;-71
2022/04/23 20:48:25;;;;;;;10.73;7.37;;;;;11.00;94845.00;;;;8317351;28;20594;-72
2022/04/23 20:56:49;;;;;;;10.53;7.70;;;;;11.00;94836.00;;;;8314928;28;20229;-72
2022/04/23 21:00:53;;;;;;;8.47;7.13;;;;;10.90;94834.00;;;;8312799;28;20232;-75
2022/04/23 21:04:58;;;;;;;12.47;7.90;;;;;10.80;94837.00;;;;8297646;28;20600;-71
2022/04/23 21:09:01;;;;;;;12.03;8.50;;;;;10.60;94838.00;;;;8300487;28;20831;-70
2022/04/23 21:13:05;;;;;;;14.27;8.10;;;;;10.50;94833.00;;;;8297701;28;20225;-71
2022/04/23 21:17:08;;;;;;;10.73;7.63;;;;;10.40;94818.00;;;;8297862;28;20890;-72
2022/04/23 21:21:12;;;;;;;10.53;7.30;;;;;10.50;94822.00;;;;8297481;28;20222;-71
2022/04/23 21:25:16;;;;;;;11.50;7.67;;;;;10.50;94808.00;;;;8297127;28;20319;-70
2022/04/23 21:29:19;;;;;;;11.97;7.90;;;;;10.50;94813.00;;;;8297416;28;20641;-71